Time;durP1;ratioP1;P1;durP2;ratioP2;P2;SDS_P1;SDS_P2;PMS_P1;PMS_P2;Temp;Humidity;BMP_temperature;BMP_pressure;BME280_temperature;BME280_humidity;BME280_pressure;Samples;Min_cycle;Max_cycle;Signal;HPM_P1;HPM_P2
2023/05/29 00:01:06;;;;;;;;;19.00;16.20;;;;;17.92;54.60;99163.78;5030502;28;8966;-78
2023/05/29 00:03:35;;;;;;;;;13.80;13.80;;;;;17.92;54.48;99161.97;5064802;28;8847;-77
2023/05/29 00:06:05;;;;;;;;;17.60;17.60;;;;;17.97;54.31;99161.72;4993630;28;8836;-78
2023/05/29 00:08:35;;;;;;;;;16.00;16.00;;;;;18.01;54.21;99162.41;5065340;28;9022;-78
2023/05/29 00:11:05;;;;;;;;;14.60;14.60;;;;;17.98;54.22;99158.09;5048113;28;8867;-79
2023/05/29 00:13:34;;;;;;;;;15.60;15.60;;;;;17.80;54.75;99156.50;5048170;28;8982;-80
2023/05/29 00:16:04;;;;;;;;;17.00;15.20;;;;;17.92;54.53;99156.66;5066585;28;8859;-78
2023/05/29 00:18:34;;;;;;;;;16.60;16.40;;;;;18.04;54.38;99152.44;5085024;28;8964;-78
2023/05/29 00:21:03;;;;;;;;;17.00;16.20;;;;;17.95;54.92;99159.16;5084695;28;8855;-78
2023/05/29 00:23:32;;;;;;;;;17.20;15.80;;;;;17.80;55.11;99154.72;5071925;28;8848;-78
2023/05/29 00:26:02;;;;;;;;;18.00;17.20;;;;;17.74;55.70;99155.91;5089442;28;8883;-79
2023/05/29 00:28:31;;;;;;;;;15.00;13.80;;;;;17.84;55.22;99145.59;5093863;28;8855;-77
2023/05/29 00:31:00;;;;;;;;;21.80;20.20;;;;;17.96;55.07;99155.53;5054112;28;8845;-78
2023/05/29 00:33:29;;;;;;;;;22.80;19.80;;;;;18.01;54.97;99152.63;5091848;28;8888;-78
2023/05/29 00:35:58;;;;;;;;;19.80;19.80;;;;;18.01;55.01;99154.44;5089723;28;9611;-77
2023/05/29 00:38:27;;;;;;;;;21.00;20.20;;;;;18.10;54.57;99148.56;5073038;28;8872;-79
2023/05/29 00:40:58;;;;;;;;;21.00;20.40;;;;;18.11;54.85;99156.47;5091457;28;8856;-80
2023/05/29 00:43:28;;;;;;;;;16.20;16.20;;;;;18.22;54.52;99144.34;5091788;28;8994;-79
2023/05/29 00:45:58;;;;;;;;;22.20;22.20;;;;;18.25;54.42;99158.34;5071498;28;8845;-78
2023/05/29 00:48:27;;;;;;;;;16.60;14.80;;;;;18.17;54.42;99144.63;5086739;28;8853;-73
2023/05/29 00:50:56;;;;;;;;;20.80;18.60;;;;;18.23;54.05;99149.59;5094371;28;8959;-80
2023/05/29 00:53:25;;;;;;;;;16.40;15.40;;;;;18.14;53.75;99150.97;5106865;28;8860;-80
2023/05/29 00:55:54;;;;;;;;;14.20;14.20;;;;;18.16;53.51;99150.91;5091836;28;8965;-79
2023/05/29 00:58:23;;;;;;;;;16.80;16.20;;;;;18.12;53.70;99152.88;5096269;28;8851;-80
2023/05/29 01:00:54;;;;;;;;;17.40;17.40;;;;;17.97;54.02;99156.41;5090349;28;8850;-79
2023/05/29 01:03:23;;;;;;;;;17.20;16.60;;;;;17.87;54.19;99169.38;5096718;28;8863;-79
2023/05/29 01:05:53;;;;;;;;;17.20;17.00;;;;;17.92;53.98;99159.31;5091517;28;8954;-78
2023/05/29 01:08:21;;;;;;;;;18.80;18.60;;;;;17.95;53.80;99164.47;5090423;28;8915;-81
2023/05/29 01:10:57;;;;;;;;;19.40;19.20;;;;;18.01;53.91;99157.94;5072992;28;8858;-80
2023/05/29 01:13:30;;;;;;;;;22.20;20.60;;;;;18.03;54.02;99157.84;5086925;28;8874;-80
2023/05/29 01:16:09;;;;;;;;;24.00;22.60;;;;;18.03;54.14;99160.50;5069933;28;8926;-80
2023/05/29 01:18:47;;;;;;;;;22.00;19.80;;;;;18.01;54.37;99159.75;5083749;28;8862;-80
2023/05/29 01:21:27;;;;;;;;;20.60;20.40;;;;;18.05;54.16;99164.81;5103474;28;8813;-80
2023/05/29 01:24:06;;;;;;;;;23.60;22.80;;;;;18.12;53.97;99160.00;5106738;28;8964;-80
2023/05/29 01:26:59;;;;;;;;;18.20;18.00;;;;;18.34;53.67;99156.91;5087563;28;8847;-80
2023/05/29 01:29:48;;;;;;;;;23.60;22.20;;;;;18.26;53.73;99146.72;5083642;28;8865;-80
2023/05/29 01:32:17;;;;;;;;;23.40;23.00;;;;;17.35;56.50;99159.00;5073567;28;8837;-81
2023/05/29 01:34:46;;;;;;;;;21.40;20.60;;;;;17.25;57.30;99161.31;5107407;28;8885;-79
2023/05/29 01:37:16;;;;;;;;;24.00;23.20;;;;;16.70;59.51;99158.91;5039746;28;8833;-79
2023/05/29 01:39:45;;;;;;;;;21.00;20.80;;;;;17.07;57.93;99159.63;5061442;28;8846;-81
2023/05/29 01:42:15;;;;;;;;;21.20;20.60;;;;;17.35;57.11;99166.97;5041777;28;8875;-78
2023/05/29 01:44:44;;;;;;;;;20.20;19.80;;;;;17.45;56.66;99162.84;5107790;28;8846;-81
2023/05/29 01:47:17;;;;;;;;;22.00;22.00;;;;;17.60;55.97;99158.50;5093260;28;9087;-82
2023/05/29 01:49:49;;;;;;;;;21.60;20.80;;;;;17.74;55.71;99163.00;5054638;28;8926;-82
2023/05/29 01:52:18;;;;;;;;;20.40;17.60;;;;;17.86;55.29;99149.03;5099991;28;8864;-79
2023/05/29 01:54:47;;;;;;;;;20.40;20.40;;;;;17.90;54.78;99149.72;5089429;28;8855;-80
2023/05/29 01:57:18;;;;;;;;;18.40;18.40;;;;;17.99;54.96;99151.84;5082165;28;8936;-81
2023/05/29 01:59:48;;;;;;;;;19.60;19.20;;;;;18.04;54.66;99143.63;5078732;28;8850;-81
2023/05/29 02:02:17;;;;;;;;;21.00;19.80;;;;;18.07;54.30;99143.44;5102656;28;8855;-81
2023/05/29 02:04:46;;;;;;;;;19.40;18.60;;;;;18.11;54.26;99142.31;5088722;28;8847;-80
2023/05/29 02:07:16;;;;;;;;;19.60;18.20;;;;;18.15;54.11;99143.84;5087971;28;9570;-80
2023/05/29 02:09:45;;;;;;;;;22.20;22.20;;;;;18.16;53.98;99142.91;5074905;28;8855;-80
2023/05/29 02:12:14;;;;;;;;;15.00;15.00;;;;;18.23;53.95;99144.28;5069580;28;8842;-81
2023/05/29 02:14:44;;;;;;;;;17.80;16.00;;;;;18.26;53.86;99144.06;5088448;28;8869;-80
2023/05/29 02:17:14;;;;;;;;;19.60;19.60;;;;;18.22;54.13;99147.88;5056805;28;8857;-80
2023/05/29 02:19:43;;;;;;;;;18.20;17.00;;;;;18.25;54.29;99149.47;5070891;28;8892;-80
2023/05/29 02:22:13;;;;;;;;;20.80;19.80;;;;;18.29;54.43;99146.56;5070241;28;8965;-82
2023/05/29 02:24:41;;;;;;;;;22.40;21.40;;;;;18.29;53.98;99146.56;5063359;28;8945;-80
2023/05/29 02:27:11;;;;;;;;;21.20;19.40;;;;;18.28;54.21;99141.31;5080361;28;8861;-80
2023/05/29 02:29:39;;;;;;;;;18.00;18.00;;;;;18.31;53.95;99151.78;5069676;28;8850;-80
2023/05/29 02:32:10;;;;;;;;;21.20;20.80;;;;;18.36;54.02;99147.03;5077371;28;8876;-79
2023/05/29 02:34:39;;;;;;;;;22.20;19.20;;;;;18.40;53.67;99137.91;5029350;28;9642;-79
2023/05/29 02:37:08;;;;;;;;;25.00;23.80;;;;;18.41;53.75;99144.97;5044013;28;9725;-80
2023/05/29 02:39:37;;;;;;;;;25.80;25.40;;;;;18.30;54.30;99144.75;5045600;28;8866;-81
2023/05/29 02:42:07;;;;;;;;;20.60;19.80;;;;;18.29;54.47;99148.34;5036217;28;8854;-80
2023/05/29 02:44:36;;;;;;;;;21.80;21.00;;;;;18.35;54.20;99154.16;5045484;28;8854;-81
2023/05/29 02:47:06;;;;;;;;;21.40;19.20;;;;;18.40;54.18;99140.56;5030458;28;8854;-79
2023/05/29 02:49:37;;;;;;;;;26.20;21.80;;;;;18.44;54.38;99150.13;5056490;28;8874;-80
2023/05/29 02:52:07;;;;;;;;;24.80;23.00;;;;;18.10;55.17;99151.22;5056426;28;8877;-79
2023/05/29 02:54:35;;;;;;;;;28.80;26.80;;;;;17.04;58.95;99150.03;5066895;28;9002;-81
2023/05/29 02:57:05;;;;;;;;;24.00;23.00;;;;;16.19;62.00;99138.50;5049420;28;8873;-81
2023/05/29 02:59:35;;;;;;;;;26.00;26.00;;;;;16.18;62.37;99143.88;5012623;28;8864;-80
2023/05/29 03:02:04;;;;;;;;;23.00;21.40;;;;;16.48;61.45;99146.78;5060336;28;8850;-80
2023/05/29 03:04:33;;;;;;;;;25.60;25.20;;;;;16.65;60.72;99156.53;5015930;28;8963;-79
2023/05/29 03:07:06;;;;;;;;;23.60;23.20;;;;;16.96;59.79;99155.75;5043649;28;8870;-80
2023/05/29 03:09:35;;;;;;;;;24.00;23.40;;;;;17.15;58.94;99166.22;5066143;28;8907;-78
2023/05/29 03:12:04;;;;;;;;;21.80;20.80;;;;;17.33;58.46;99161.75;5092489;28;8956;-79
2023/05/29 03:14:35;;;;;;;;;30.00;27.60;;;;;17.35;58.35;99162.53;5103445;28;8848;-78
2023/05/29 03:17:08;;;;;;;;;26.60;24.00;;;;;17.58;57.79;99171.00;5086194;28;8885;-81
2023/05/29 03:19:38;;;;;;;;;24.00;22.40;;;;;17.65;57.44;99172.38;5030546;28;9631;-80
2023/05/29 03:22:09;;;;;;;;;23.00;22.00;;;;;17.70;57.34;99174.78;5060436;28;8948;-80
2023/05/29 03:24:39;;;;;;;;;24.80;24.00;;;;;17.64;57.70;99175.97;5084879;28;8844;-79
2023/05/29 03:27:08;;;;;;;;;27.20;24.20;;;;;17.66;57.37;99178.56;5098193;28;8844;-81
2023/05/29 03:29:38;;;;;;;;;24.60;22.40;;;;;17.78;57.10;99177.88;5071634;28;9029;-79
2023/05/29 03:32:07;;;;;;;;;22.20;22.20;;;;;17.83;56.80;99175.78;5089043;28;9066;-80
2023/05/29 03:34:36;;;;;;;;;56.75;46.50;;;;;17.92;56.49;99169.94;5083189;28;8906;-78
2023/05/29 03:37:07;;;;;;;;;26.00;24.20;;;;;17.94;56.31;99172.53;5070534;28;8859;-79
2023/05/29 03:39:38;;;;;;;;;38.20;33.20;;;;;18.02;56.46;99177.41;5064758;28;8872;-80
2023/05/29 03:42:08;;;;;;;;;21.80;21.40;;;;;18.14;56.03;99176.72;5086464;28;8848;-80
2023/05/29 03:44:37;;;;;;;;;28.80;26.40;;;;;18.21;55.81;99179.88;5069831;28;8863;-82
2023/05/29 03:47:08;;;;;;;;;26.00;24.80;;;;;18.23;55.59;99176.19;5083462;28;8895;-80
2023/05/29 03:49:40;;;;;;;;;22.60;22.60;;;;;18.34;55.46;99175.53;5053259;28;8838;-80
2023/05/29 03:52:09;;;;;;;;;23.40;23.20;;;;;18.40;54.82;99177.84;5060144;28;8816;-80
2023/05/29 03:54:39;;;;;;;;;21.60;21.40;;;;;18.38;54.78;99177.06;5085720;28;8848;-80
2023/05/29 03:57:08;;;;;;;;;21.60;20.20;;;;;18.27;54.68;99183.06;5066782;28;8962;-81
2023/05/29 03:59:37;;;;;;;;;19.60;17.80;;;;;18.30;54.75;99182.00;5070328;28;8862;-80
2023/05/29 04:02:06;;;;;;;;;20.40;19.20;;;;;18.27;54.82;99175.06;5099740;28;8864;-80
2023/05/29 04:04:36;;;;;;;;;18.00;17.60;;;;;18.40;54.50;99184.97;5103812;28;9021;-80
2023/05/29 04:07:06;;;;;;;;;21.20;19.40;;;;;18.44;54.40;99176.72;5077511;28;8875;-79
2023/05/29 04:09:35;;;;;;;;;23.80;22.00;;;;;18.52;54.25;99192.25;5083963;28;8859;-79
2023/05/29 04:12:06;;;;;;;;;22.00;21.00;;;;;18.38;54.62;99195.69;5036677;28;9617;-81
2023/05/29 04:14:35;;;;;;;;;20.40;18.40;;;;;18.35;54.88;99198.56;5082337;28;8852;-80
2023/05/29 04:17:04;;;;;;;;;18.40;18.40;;;;;18.40;54.63;99203.59;5080463;28;8877;-80
2023/05/29 04:19:33;;;;;;;;;17.60;15.40;;;;;18.17;55.39;99197.81;5087496;28;8856;-78
2023/05/29 04:22:02;;;;;;;;;15.60;15.60;;;;;18.10;55.74;99202.66;5069544;28;8839;-79
2023/05/29 04:24:32;;;;;;;;;17.20;17.00;;;;;18.28;54.98;99203.38;5083806;28;9690;-81
2023/05/29 04:27:01;;;;;;;;;18.40;16.60;;;;;18.08;55.52;99198.34;5085958;28;8941;-79
2023/05/29 04:29:33;;;;;;;;;16.20;16.20;;;;;18.01;55.82;99195.16;5069238;28;8859;-78
2023/05/29 04:32:04;;;;;;;;;18.60;18.60;;;;;17.88;55.94;99195.00;5067320;28;8889;-81
2023/05/29 04:34:34;;;;;;;;;19.80;19.80;;;;;17.97;55.64;99199.81;5069203;28;8888;-81
2023/05/29 04:37:03;;;;;;;;;16.40;16.00;;;;;18.15;55.25;99199.72;5069991;28;8944;-79
2023/05/29 04:39:32;;;;;;;;;22.00;20.60;;;;;17.98;55.61;99206.81;5074428;28;8832;-81
2023/05/29 04:42:02;;;;;;;;;17.60;17.60;;;;;17.96;55.86;99203.38;5077755;28;8848;-82
2023/05/29 04:44:32;;;;;;;;;19.40;17.40;;;;;18.02;55.80;99194.19;5079164;28;8941;-79
2023/05/29 04:47:02;;;;;;;;;27.20;25.80;;;;;18.10;55.47;99205.31;5088254;28;8879;-83
2023/05/29 04:49:31;;;;;;;;;47.00;39.75;;;;;18.30;55.29;99213.94;5035481;28;8894;-80
2023/05/29 04:52:02;;;;;;;;;24.80;24.00;;;;;18.23;55.38;99217.88;5069577;28;8858;-81
2023/05/29 04:54:31;;;;;;;;;22.20;18.20;;;;;18.24;55.42;99216.97;5086010;28;9002;-82
2023/05/29 04:57:01;;;;;;;;;19.80;19.80;;;;;18.25;55.40;99219.53;5069062;28;8933;-80
2023/05/29 04:59:35;;;;;;;;;22.20;21.40;;;;;18.39;54.87;99223.19;5069656;28;9133;-81
2023/05/29 05:02:07;;;;;;;;;18.00;17.00;;;;;18.47;54.52;99224.44;5068023;28;8849;-81
2023/05/29 05:04:36;;;;;;;;;18.60;17.00;;;;;18.63;54.34;99221.75;5058894;28;8913;-82
2023/05/29 05:07:06;;;;;;;;;18.20;17.80;;;;;18.63;54.14;99232.38;5080573;28;8842;-81
2023/05/29 05:09:35;;;;;;;;;19.00;19.00;;;;;18.61;54.10;99228.97;5065449;28;8864;-80
2023/05/29 05:12:05;;;;;;;;;20.60;20.00;;;;;18.69;53.86;99228.50;5073319;28;8845;-81
2023/05/29 05:14:36;;;;;;;;;20.60;18.80;;;;;18.81;53.65;99229.59;5039682;28;8834;-80
2023/05/29 05:17:05;;;;;;;;;16.20;16.20;;;;;18.92;53.44;99227.13;5043596;28;8840;-81
2023/05/29 05:19:34;;;;;;;;;19.20;17.80;;;;;19.08;53.16;99227.94;5058902;28;8860;-80
2023/05/29 05:22:03;;;;;;;;;22.20;21.80;;;;;18.15;55.62;99234.28;5069105;28;8834;-80
2023/05/29 05:24:34;;;;;;;;;26.60;25.60;;;;;18.44;54.87;99229.06;5054871;28;8911;-80
2023/05/29 05:27:05;;;;;;;;;19.60;19.60;;;;;18.74;54.20;99226.41;5084922;28;8952;-79
2023/05/29 05:29:36;;;;;;;;;17.80;17.60;;;;;18.96;53.28;99241.13;5070615;28;8895;-79
2023/05/29 05:32:06;;;;;;;;;12.60;12.20;;;;;19.02;52.25;99238.09;5065703;28;9604;-79
2023/05/29 05:34:35;;;;;;;;;15.00;15.00;;;;;19.24;52.19;99232.31;5035009;28;8945;-79
2023/05/29 05:37:05;;;;;;;;;12.80;12.80;;;;;19.35;51.21;99228.94;5069483;28;8854;-78
2023/05/29 05:39:34;;;;;;;;;15.00;13.80;;;;;19.43;50.64;99232.84;5087664;28;8851;-76
2023/05/29 05:42:03;;;;;;;;;11.40;10.60;;;;;19.46;50.24;99226.47;5088231;28;8952;-77
2023/05/29 05:44:50;;;;;;;;;14.60;13.40;;;;;19.56;50.23;99224.13;5084611;28;8874;-82
2023/05/29 05:47:20;;;;;;;;;14.80;12.40;;;;;19.64;49.59;99225.34;5086255;28;8852;-79
2023/05/29 05:49:49;;;;;;;;;15.60;15.60;;;;;19.81;49.34;99226.91;5105459;28;8844;-82
2023/05/29 05:52:18;;;;;;;;;20.20;20.00;;;;;20.02;49.35;99227.34;5071975;28;8889;-82
2023/05/29 05:54:48;;;;;;;;;23.60;20.80;;;;;19.96;49.27;99222.41;5073807;28;8891;-80
2023/05/29 05:57:17;;;;;;;;;18.80;18.20;;;;;19.93;49.07;99225.25;5086829;28;8864;-78
2023/05/29 05:59:47;;;;;;;;;13.80;13.40;;;;;20.14;48.58;99231.03;5069938;28;8853;-80
2023/05/29 06:02:18;;;;;;;;;14.60;14.60;;;;;19.94;49.01;99237.66;5072160;28;8942;-79
2023/05/29 06:04:48;;;;;;;;;18.40;18.20;;;;;19.87;49.42;99231.84;5032977;28;8856;-81
2023/05/29 06:07:18;;;;;;;;;20.80;20.60;;;;;20.07;49.37;99237.72;5049920;28;8883;-79
2023/05/29 06:09:47;;;;;;;;;18.00;17.40;;;;;20.15;49.17;99230.06;5053284;28;8903;-78
2023/05/29 06:12:17;;;;;;;;;18.80;18.80;;;;;20.24;49.23;99228.66;5053389;28;8876;-77
2023/05/29 06:14:56;;;;;;;;;18.20;18.00;;;;;20.41;49.14;99238.19;5048969;28;8891;-78
2023/05/29 06:17:27;;;;;;;;;26.40;25.60;;;;;20.54;48.62;99239.09;5051507;28;8857;-77
2023/05/29 06:19:56;;;;;;;;;17.80;17.20;;;;;20.43;48.63;99245.13;5019664;28;8910;-76
2023/05/29 06:22:25;;;;;;;;;14.40;14.00;;;;;19.78;49.61;99244.94;5072905;28;8876;-77
2023/05/29 06:24:53;;;;;;;;;16.40;16.40;;;;;19.55;50.40;99247.25;5054077;28;8868;-78
2023/05/29 06:27:25;;;;;;;;;29.40;29.20;;;;;19.29;51.45;99247.06;5053079;28;9944;-78
2023/05/29 06:29:54;;;;;;;;;17.80;16.40;;;;;18.77;52.89;99252.00;5071054;28;8850;-78
2023/05/29 06:32:23;;;;;;;;;15.60;15.20;;;;;18.96;52.66;99249.97;5074901;28;8855;-79
2023/05/29 06:34:55;;;;;;;;;15.40;15.40;;;;;19.48;51.51;99246.75;4984220;28;8880;-80
2023/05/29 06:37:24;;;;;;;;;17.00;16.60;;;;;19.84;50.31;99250.75;5009757;28;8844;-84
2023/05/29 06:39:53;;;;;;;;;13.00;13.00;;;;;20.15;49.63;99250.56;4993841;28;8860;-82
2023/05/29 06:42:23;;;;;;;;;14.00;13.80;;;;;19.90;49.11;99255.69;5009887;28;8860;-79
2023/05/29 06:44:58;;;;;;;;;18.40;18.20;;;;;19.98;49.28;99255.19;4976744;28;8844;-83
2023/05/29 06:47:28;;;;;;;;;16.80;15.80;;;;;20.27;48.85;99257.78;4994516;28;8858;-81
2023/05/29 06:49:59;;;;;;;;;11.40;11.40;;;;;20.53;47.41;99260.53;5011751;28;8880;-80
2023/05/29 06:52:28;;;;;;;;;17.60;17.00;;;;;20.51;47.27;99265.13;4993058;28;9668;-79
2023/05/29 06:55:15;;;;;;;;;14.20;14.20;;;;;20.59;46.66;99262.78;5010119;28;8860;-82
2023/05/29 06:57:45;;;;;;;;;17.20;17.20;;;;;20.74;46.72;99266.25;4991637;28;8871;-81
2023/05/29 07:00:15;;;;;;;;;19.20;18.20;;;;;20.76;46.91;99267.00;5014340;28;8860;-82
2023/05/29 07:02:52;;;;;;;;;18.60;15.60;;;;;21.11;46.32;99264.63;4979469;28;8876;-79
2023/05/29 07:05:23;;;;;;;;;15.40;15.40;;;;;21.26;45.29;99260.88;5017707;28;8838;-79
2023/05/29 07:07:52;;;;;;;;;16.40;16.40;;;;;21.52;45.50;99268.00;5043767;28;8919;-81
2023/05/29 07:10:21;;;;;;;;;19.40;18.40;;;;;21.71;45.01;99263.09;5061576;28;9599;-80
2023/05/29 07:12:51;;;;;;;;;17.80;17.80;;;;;21.48;45.34;99274.53;5033105;28;8896;-78
2023/05/29 07:15:20;;;;;;;;;24.80;22.40;;;;;21.80;45.09;99269.59;5036451;28;8863;-78
2023/05/29 07:17:49;;;;;;;;;16.60;15.00;;;;;22.01;44.75;99269.84;5033298;28;8838;-79
2023/05/29 07:20:24;;;;;;;;;13.80;13.60;;;;;22.23;44.08;99277.16;5048348;28;8866;-79
2023/05/29 07:22:54;;;;;;;;;13.60;13.60;;;;;22.48;43.95;99273.53;5015055;28;8865;-80
2023/05/29 07:25:23;;;;;;;;;18.60;18.60;;;;;22.58;43.66;99274.56;5048841;28;8870;-81
2023/05/29 07:27:52;;;;;;;;;16.60;16.00;;;;;22.42;43.81;99282.03;5048231;28;8874;-83
2023/05/29 07:30:21;;;;;;;;;19.00;18.60;;;;;22.76;43.85;99279.47;5031361;28;8868;-79
2023/05/29 07:32:51;;;;;;;;;15.80;15.80;;;;;22.75;43.74;99278.63;5044748;28;8942;-83
2023/05/29 07:35:20;;;;;;;;;19.40;19.40;;;;;22.95;43.28;99279.81;4983081;28;9576;-81
2023/05/29 07:37:52;;;;;;;;;18.80;17.80;;;;;23.15;42.87;99282.78;5031018;28;8885;-82
2023/05/29 07:40:21;;;;;;;;;16.60;16.00;;;;;23.45;42.64;99275.97;5069021;28;8860;-79
2023/05/29 07:43:09;;;;;;;;;16.80;16.80;;;;;23.63;41.94;99274.53;5086468;28;8852;-80
2023/05/29 07:45:48;;;;;;;;;15.00;14.80;;;;;23.83;42.01;99280.13;5069229;28;8883;-81
2023/05/29 07:48:18;;;;;;;;;13.00;13.00;;;;;24.01;41.87;99281.31;5032732;28;8862;-80
2023/05/29 07:50:49;;;;;;;;;18.60;18.00;;;;;24.17;41.48;99278.28;5062679;28;8936;-79
2023/05/29 07:53:20;;;;;;;;;21.20;20.00;;;;;24.28;41.30;99275.56;5069390;28;8855;-79
2023/05/29 07:55:50;;;;;;;;;22.80;22.00;;;;;24.33;40.92;99277.88;5067483;28;8850;-78
2023/05/29 07:58:19;;;;;;;;;19.20;19.20;;;;;24.23;40.82;99274.25;5085577;28;8978;-77
2023/05/29 08:00:48;;;;;;;;;19.00;17.40;;;;;24.12;41.01;99275.09;5101739;28;8840;-80
2023/05/29 08:03:17;;;;;;;;;17.40;16.60;;;;;24.29;40.82;99281.78;5069218;28;8875;-80
2023/05/29 08:06:25;;;;;;;;;20.40;20.40;;;;;24.39;40.16;99279.19;5047898;28;8863;-80
2023/05/29 08:08:58;;;;;;;;;20.00;17.40;;;;;24.30;40.11;99275.41;5030167;28;8879;-79
2023/05/29 08:11:28;;;;;;;;;18.80;18.80;;;;;24.33;40.39;99278.72;5030837;28;8868;-81
2023/05/29 08:13:59;;;;;;;;;21.60;20.00;;;;;24.27;40.24;99283.75;5031029;28;8847;-82
2023/05/29 08:16:28;;;;;;;;;19.20;18.40;;;;;24.39;40.72;99290.78;5030985;28;8880;-78
2023/05/29 08:18:57;;;;;;;;;20.80;17.20;;;;;24.57;39.55;99291.09;5064737;28;8899;-79
2023/05/29 08:21:27;;;;;;;;;23.00;21.40;;;;;24.71;39.09;99287.22;5074070;28;8983;-81
2023/05/29 08:23:56;;;;;;;;;19.40;19.00;;;;;24.70;38.99;99290.91;5047746;28;8856;-79
2023/05/29 08:26:27;;;;;;;;;20.00;19.80;;;;;24.68;38.64;99282.09;5047770;28;8990;-80
2023/05/29 08:28:56;;;;;;;;;23.40;21.80;;;;;24.35;39.63;99286.66;5044353;28;8870;-80
2023/05/29 08:31:26;;;;;;;;;23.00;21.40;;;;;24.60;39.51;99284.59;5029908;28;8881;-79
2023/05/29 08:33:56;;;;;;;;;22.40;21.60;;;;;24.66;39.36;99279.56;5000829;28;8927;-79
2023/05/29 08:36:26;;;;;;;;;21.60;20.00;;;;;24.70;39.66;99280.16;5051770;28;8862;-80
2023/05/29 08:38:55;;;;;;;;;20.60;20.60;;;;;24.90;39.05;99284.72;5035742;28;8850;-80
2023/05/29 08:41:34;;;;;;;;;20.60;19.60;;;;;25.00;38.69;99282.13;5064435;28;8854;-79
2023/05/29 08:44:05;;;;;;;;;20.80;20.60;;;;;24.94;39.11;99279.94;5045512;28;8896;-78
2023/05/29 08:46:35;;;;;;;;;20.20;19.80;;;;;24.81;39.11;99274.78;5050519;28;8870;-81
2023/05/29 08:49:05;;;;;;;;;21.00;20.60;;;;;25.02;38.85;99277.44;5034738;28;8859;-80
2023/05/29 08:51:39;;;;;;;;;19.40;19.40;;;;;25.08;39.26;99281.44;5038595;28;8854;-81
2023/05/29 08:54:10;;;;;;;;;21.20;20.00;;;;;25.34;38.17;99279.22;5031363;28;8819;-81
2023/05/29 08:56:41;;;;;;;;;20.60;20.00;;;;;25.26;37.72;99281.69;5058459;28;8872;-79
2023/05/29 08:59:12;;;;;;;;;17.60;17.60;;;;;25.43;37.84;99283.78;5063036;28;8977;-79
2023/05/29 09:01:42;;;;;;;;;18.40;18.40;;;;;25.54;37.68;99272.09;5079386;28;8896;-81
2023/05/29 09:04:11;;;;;;;;;20.40;20.40;;;;;25.68;36.85;99277.09;5085630;28;8864;-79
2023/05/29 09:06:42;;;;;;;;;22.60;20.40;;;;;25.49;37.36;99271.63;5081021;28;8836;-78
2023/05/29 09:09:11;;;;;;;;;21.20;20.80;;;;;25.60;36.78;99276.91;5099036;28;8848;-79
2023/05/29 09:11:42;;;;;;;;;23.40;23.40;;;;;25.81;37.29;99271.47;5090992;28;8870;-79
2023/05/29 09:14:36;;;;;;;;;25.80;23.60;;;;;25.73;36.78;99270.47;5008668;28;8857;-79
2023/05/29 09:17:06;;;;;;;;;24.20;22.80;;;;;25.71;37.39;99266.03;5047528;28;8970;-80
2023/05/29 09:19:37;;;;;;;;;21.60;21.60;;;;;25.70;37.95;99266.22;5045842;28;8854;-80
2023/05/29 09:22:09;;;;;;;;;7.20;5.40;;;;;25.69;36.73;99265.34;5031171;28;8952;-80
2023/05/29 09:24:39;;;;;;;;;18.20;17.80;;;;;25.86;37.19;99255.75;5046873;28;9615;-81
2023/05/29 09:27:12;;;;;;;;;21.00;19.80;;;;;25.78;35.97;99260.13;5030207;28;8862;-80
2023/05/29 09:29:43;;;;;;;;;19.60;19.60;;;;;25.79;35.57;99259.97;5030450;28;8909;-82
2023/05/29 09:32:33;;;;;;;;;18.60;17.40;;;;;25.71;35.23;99249.06;5070415;28;8828;-79
2023/05/29 09:35:03;;;;;;;;;20.20;20.20;;;;;25.99;34.86;99255.53;5017025;28;8887;-80
2023/05/29 09:37:32;;;;;;;;;17.80;17.80;;;;;25.93;35.44;99247.13;5066848;28;8903;-80
2023/05/29 09:40:02;;;;;;;;;14.80;14.80;;;;;25.93;34.24;99241.75;5059425;28;9026;-79
2023/05/29 09:42:32;;;;;;;;;15.60;15.60;;;;;26.04;33.15;99239.81;5030774;28;9010;-80
2023/05/29 09:45:04;;;;;;;;;14.40;14.20;;;;;26.04;33.52;99244.31;5032602;28;8865;-79
2023/05/29 09:47:35;;;;;;;;;16.40;16.40;;;;;25.94;34.07;99243.47;5031196;28;9005;-80
2023/05/29 09:50:04;;;;;;;;;15.00;14.80;;;;;26.20;33.70;99247.34;5031045;28;8857;-78
2023/05/29 09:52:36;;;;;;;;;17.20;16.00;;;;;26.12;33.94;99239.13;5030304;28;8884;-82
2023/05/29 09:55:06;;;;;;;;;18.40;17.60;;;;;26.06;33.97;99243.22;5029284;28;8865;-81
2023/05/29 09:57:36;;;;;;;;;18.20;18.20;;;;;26.24;33.89;99242.53;5031072;28;8995;-80
2023/05/29 10:00:12;;;;;;;;;16.00;15.00;;;;;26.36;33.02;99237.84;5013583;28;8891;-82
2023/05/29 10:02:43;;;;;;;;;16.20;15.00;;;;;26.12;33.47;99240.97;5046214;28;8856;-81
2023/05/29 10:05:15;;;;;;;;;19.60;18.00;;;;;25.92;33.75;99238.22;5047715;28;8887;-78
2023/05/29 10:07:47;;;;;;;;;15.00;14.00;;;;;25.75;34.21;99230.78;5061783;28;9019;-80
2023/05/29 10:10:18;;;;;;;;;17.20;14.40;;;;;26.13;33.52;99231.88;5022822;28;8967;-79
2023/05/29 10:12:50;;;;;;;;;19.80;17.00;;;;;26.01;33.56;99231.16;5048180;28;8861;-79
2023/05/29 10:15:21;;;;;;;;;16.40;16.00;;;;;26.32;33.30;99228.34;5057653;28;9089;-80
2023/05/29 10:18:00;;;;;;;;;14.60;14.60;;;;;26.43;33.29;99225.50;5049817;28;8873;-79
2023/05/29 10:20:30;;;;;;;;;16.20;15.60;;;;;26.45;33.06;99226.22;5045971;28;8910;-81
2023/05/29 10:23:02;;;;;;;;;13.20;13.20;;;;;26.45;32.83;99218.97;5061502;28;8855;-83
2023/05/29 10:25:34;;;;;;;;;17.00;17.00;;;;;26.16;33.10;99223.53;5038023;28;8860;-78
2023/05/29 10:28:06;;;;;;;;;13.40;13.40;;;;;26.50;32.87;99218.59;5070725;28;8840;-81
2023/05/29 10:30:40;;;;;;;;;13.60;13.60;;;;;26.62;31.43;99221.97;5072705;28;8895;-79
2023/05/29 10:33:38;;;;;;;;;17.20;16.80;;;;;26.99;32.20;99223.91;5067493;28;8854;-79
2023/05/29 10:36:13;;;;;;;;;16.80;15.60;;;;;26.83;32.20;99227.19;5068043;28;8977;-81
2023/05/29 10:38:46;;;;;;;;;16.60;16.60;;;;;26.72;32.58;99228.22;5083097;28;8848;-79
2023/05/29 10:41:39;;;;;;;;;18.80;16.60;;;;;26.81;32.28;99215.69;5053616;28;8926;-80
2023/05/29 10:44:42;;;;;;;;;16.00;15.80;;;;;27.02;32.46;99205.63;5060610;28;8878;-80
2023/05/29 10:47:12;;;;;;;;;19.40;17.40;;;;;26.74;31.79;99210.06;5073487;28;8863;-80
2023/05/29 10:49:50;;;;;;;;;16.80;16.00;;;;;26.95;31.81;99201.75;5088929;28;8861;-80
2023/05/29 10:52:21;;;;;;;;;17.00;15.40;;;;;26.80;32.46;99208.63;5069299;28;8955;-77
2023/05/29 10:54:56;;;;;;;;;16.00;16.00;;;;;27.12;32.44;99202.00;5050036;28;8855;-80
2023/05/29 10:57:26;;;;;;;;;15.00;14.00;;;;;27.04;31.88;99192.81;5085476;28;8852;-80
2023/05/29 11:00:12;;;;;;;;;18.60;17.60;;;;;27.28;31.62;99191.44;5059855;28;8870;-80
2023/05/29 11:02:43;;;;;;;;;16.80;15.60;;;;;27.07;31.66;99188.97;5084448;28;8843;-79
2023/05/29 11:05:23;;;;;;;;;17.60;16.80;;;;;27.29;30.87;99197.69;5054871;28;8858;-82
2023/05/29 11:08:04;;;;;;;;;17.80;15.60;;;;;27.46;31.47;99194.22;5081608;28;9666;-81
2023/05/29 11:10:44;;;;;;;;;22.00;21.20;;;;;27.60;31.99;99190.19;5088389;28;8897;-79
2023/05/29 11:13:25;;;;;;;;;18.00;18.00;;;;;27.65;31.61;99185.19;5087676;28;8839;-80
2023/05/29 11:16:12;;;;;;;;;20.60;20.60;;;;;27.86;31.65;99181.38;5069338;28;8890;-80
2023/05/29 11:18:46;;;;;;;;;18.00;17.00;;;;;27.67;31.27;99174.22;5076842;28;8874;-80
2023/05/29 11:21:32;;;;;;;;;17.20;17.20;;;;;27.80;30.96;99172.03;5069726;28;8862;-80
2023/05/29 11:24:04;;;;;;;;;17.80;17.00;;;;;27.90;30.74;99171.94;5088087;28;8851;-82
2023/05/29 11:26:38;;;;;;;;;18.40;18.20;;;;;28.08;30.21;99169.22;5071933;28;8850;-78
2023/05/29 11:29:11;;;;;;;;;14.80;14.60;;;;;28.18;30.17;99170.06;5079544;28;8832;-80
2023/05/29 11:31:41;;;;;;;;;19.40;19.40;;;;;28.03;29.93;99165.16;5052614;28;9609;-79
2023/05/29 11:34:15;;;;;;;;;18.40;15.60;;;;;28.25;30.32;99163.00;5087133;28;9619;-79
2023/05/29 11:36:48;;;;;;;;;19.00;17.00;;;;;28.41;29.98;99157.72;5069041;28;8910;-79
2023/05/29 11:39:18;;;;;;;;;18.20;17.80;;;;;28.42;30.88;99158.56;5057122;28;8886;-79
2023/05/29 11:41:51;;;;;;;;;23.60;22.60;;;;;28.38;31.52;99163.47;5086325;28;9581;-79
2023/05/29 11:44:20;;;;;;;;;19.60;18.80;;;;;28.38;29.63;99163.47;5076120;28;8858;-81